Time;durP1;ratioP1;P1;durP2;ratioP2;P2;SDS_P1;SDS_P2;PMS_P1;PMS_P2;Temp;Humidity;BMP_temperature;BMP_pressure;BME280_temperature;BME280_humidity;BME280_pressure;Samples;Min_cycle;Max_cycle;Signal;HPM_P1;HPM_P2
2023/01/27 00:01:59;;;;;;;;;;;18.70;39.80;;;;;;5060371;28;20019;-67
2023/01/27 00:04:25;;;;;;;;;;;18.60;39.70;;;;;;5059441;28;19933;-62
2023/01/27 00:06:52;;;;;;;;;;;18.70;39.80;;;;;;5061967;28;19990;-65
2023/01/27 00:09:19;;;;;;;;;;;18.70;39.80;;;;;;5056719;28;19967;-64
2023/01/27 00:14:32;;;;;;;;;;;18.70;39.80;;;;;;5091237;28;19921;-64
2023/01/27 00:16:58;;;;;;;;;;;18.70;39.90;;;;;;5059146;28;20043;-66
2023/01/27 00:19:25;;;;;;;;;;;18.70;39.90;;;;;;5065059;28;19972;-64
2023/01/27 00:24:36;;;;;;;;;;;18.70;39.90;;;;;;5062160;28;19925;-65
2023/01/27 00:27:04;;;;;;;;;;;18.70;39.90;;;;;;5058289;28;19943;-61
2023/01/27 00:29:32;;;;;;;;;;;18.70;39.90;;;;;;5092148;28;19933;-68
2023/01/27 00:34:43;;;;;;;;;;;18.70;40.00;;;;;;5087467;28;19920;-66
2023/01/27 00:37:10;;;;;;;;;;;18.70;40.00;;;;;;5050542;28;19920;-60
2023/01/27 00:39:36;;;;;;;;;;;18.70;40.00;;;;;;5067551;28;19921;-63
2023/01/27 00:42:03;;;;;;;;;;;18.70;40.00;;;;;;5060454;28;19924;-60
2023/01/27 00:44:32;;;;;;;;;;;18.70;40.00;;;;;;5089565;28;19920;-66
2023/01/27 00:46:58;;;;;;;;;;;18.70;40.00;;;;;;5084433;28;19921;-61
2023/01/27 00:49:25;;;;;;;;;;;18.70;40.00;;;;;;5065895;28;19920;-64
2023/01/27 00:51:53;;;;;;;;;;;18.70;40.00;;;;;;5070410;28;19925;-61
2023/01/27 00:54:20;;;;;;;;;;;18.70;40.00;;;;;;5056630;28;19927;-62
2023/01/27 00:56:47;;;;;;;;;;;18.70;40.00;;;;;;5050879;28;20334;-67
2023/01/27 00:59:14;;;;;;;;;;;18.70;40.00;;;;;;5063777;28;19924;-61
2023/01/27 01:01:42;;;;;;;;;;;18.70;40.00;;;;;;5062186;28;19928;-62
2023/01/27 01:04:09;;;;;;;;;;;18.70;40.00;;;;;;5066018;28;19921;-66
2023/01/27 01:06:35;;;;;;;;;;;18.70;40.00;;;;;;5052776;28;19948;-68
2023/01/27 01:09:02;;;;;;;;;;;18.70;40.00;;;;;;5062309;28;20140;-65
2023/01/27 01:11:29;;;;;;;;;;;18.70;40.00;;;;;;5059583;28;19978;-63
2023/01/27 01:13:56;;;;;;;;;;;18.70;40.10;;;;;;5102000;28;20389;-68
2023/01/27 01:16:23;;;;;;;;;;;18.70;40.00;;;;;;5056100;28;19925;-64
2023/01/27 01:18:51;;;;;;;;;;;18.70;40.00;;;;;;5060677;28;19924;-64
2023/01/27 01:21:18;;;;;;;;;;;18.70;40.00;;;;;;5061920;28;20367;-71
2023/01/27 01:23:45;;;;;;;;;;;18.70;40.00;;;;;;5059355;28;20083;-61
2023/01/27 01:26:12;;;;;;;;;;;18.70;40.00;;;;;;5056811;28;19944;-65
2023/01/27 01:28:39;;;;;;;;;;;18.70;40.60;;;;;;5049987;28;20046;-64
2023/01/27 01:31:06;;;;;;;;;;;18.70;40.10;;;;;;5060896;28;19920;-65
2023/01/27 01:33:32;;;;;;;;;;;18.70;40.10;;;;;;5065713;28;20338;-63
2023/01/27 01:36:04;;;;;;;;;;;18.70;40.10;;;;;;5058165;28;20305;-63
2023/01/27 01:38:31;;;;;;;;;;;18.70;40.10;;;;;;5091225;28;20367;-61
2023/01/27 01:40:58;;;;;;;;;;;18.70;40.10;;;;;;5063556;28;20318;-66
2023/01/27 01:43:26;;;;;;;;;;;18.70;40.10;;;;;;5066200;28;20029;-64
2023/01/27 01:45:53;;;;;;;;;;;18.70;40.10;;;;;;5056429;28;20394;-67
2023/01/27 01:48:28;;;;;;;;;;;18.70;40.10;;;;;;5048458;28;19979;-65
2023/01/27 01:50:55;;;;;;;;;;;18.70;40.10;;;;;;5048885;28;19963;-64
2023/01/27 01:53:28;;;;;;;;;;;18.70;40.10;;;;;;5055328;28;19920;-67
2023/01/27 01:55:57;;;;;;;;;;;18.70;40.10;;;;;;5089898;28;20039;-72
2023/01/27 01:58:26;;;;;;;;;;;18.70;40.10;;;;;;5048250;28;19978;-67
2023/01/27 02:00:53;;;;;;;;;;;18.70;40.10;;;;;;5049279;28;19986;-67
2023/01/27 02:03:20;;;;;;;;;;;18.70;40.70;;;;;;5048388;28;20302;-66
2023/01/27 02:05:47;;;;;;;;;;;18.70;40.10;;;;;;5047487;28;19986;-70
2023/01/27 02:08:15;;;;;;;;;;;18.70;40.10;;;;;;5049971;28;19975;-61
2023/01/27 02:10:43;;;;;;;;;;;18.70;40.20;;;;;;5049914;28;19921;-64
2023/01/27 02:13:10;;;;;;;;;;;18.70;40.10;;;;;;5034278;28;19975;-63
2023/01/27 02:15:37;;;;;;;;;;;18.70;40.10;;;;;;5039855;28;20317;-67
2023/01/27 02:18:03;;;;;;;;;;;18.70;40.10;;;;;;5064570;28;19929;-67
2023/01/27 02:20:31;;;;;;;;;;;18.70;40.10;;;;;;5064192;28;19966;-68
2023/01/27 02:22:59;;;;;;;;;;;18.70;40.10;;;;;;5056689;28;19973;-65
2023/01/27 02:25:27;;;;;;;;;;;18.70;40.10;;;;;;5060145;28;19925;-65
2023/01/27 02:27:55;;;;;;;;;;;18.70;40.20;;;;;;5050150;28;19937;-72
2023/01/27 02:30:22;;;;;;;;;;;18.70;40.10;;;;;;5098673;28;20055;-63
2023/01/27 02:32:49;;;;;;;;;;;18.70;40.20;;;;;;5088761;28;19963;-61
2023/01/27 02:35:17;;;;;;;;;;;18.70;40.10;;;;;;5056708;28;19944;-65
2023/01/27 02:37:43;;;;;;;;;;;18.70;40.10;;;;;;5051177;28;19929;-63
2023/01/27 02:40:10;;;;;;;;;;;18.70;40.10;;;;;;5066526;28;19950;-65
2023/01/27 02:42:37;;;;;;;;;;;18.70;40.20;;;;;;5055216;28;19927;-62
2023/01/27 02:45:06;;;;;;;;;;;18.70;40.10;;;;;;5063427;28;19928;-66
2023/01/27 02:47:33;;;;;;;;;;;18.70;40.20;;;;;;5084615;28;19929;-61
2023/01/27 02:50:00;;;;;;;;;;;18.70;40.20;;;;;;5064658;28;19924;-65
2023/01/27 02:52:27;;;;;;;;;;;18.70;40.20;;;;;;5060862;28;19970;-62
2023/01/27 02:54:53;;;;;;;;;;;18.70;40.20;;;;;;5084836;28;19924;-62
2023/01/27 02:57:20;;;;;;;;;;;18.70;40.20;;;;;;5053419;28;20014;-61
2023/01/27 02:59:47;;;;;;;;;;;18.70;40.20;;;;;;5047086;28;19960;-67
2023/01/27 03:02:21;;;;;;;;;;;18.70;40.20;;;;;;5098811;28;20024;-60
2023/01/27 03:04:48;;;;;;;;;;;18.70;40.20;;;;;;5064142;28;19920;-61
2023/01/27 03:07:15;;;;;;;;;;;18.70;40.20;;;;;;5066907;28;19921;-60
2023/01/27 03:09:42;;;;;;;;;;;18.70;40.20;;;;;;5067272;28;19966;-61
2023/01/27 03:12:20;;;;;;;;;;;18.70;40.20;;;;;;5056254;28;19921;-60
2023/01/27 03:20:17;;;;;;;;;;;18.70;40.20;;;;;;5049152;28;19927;-68
2023/01/27 03:22:44;;;;;;;;;;;18.70;40.20;;;;;;5100477;28;19924;-64
2023/01/27 03:25:10;;;;;;;;;;;18.70;40.20;;;;;;5096584;28;20002;-61
2023/01/27 03:27:37;;;;;;;;;;;18.70;40.20;;;;;;5058024;28;19920;-65
2023/01/27 03:30:05;;;;;;;;;;;18.70;40.20;;;;;;5069880;28;19924;-64
2023/01/27 03:32:33;;;;;;;;;;;18.70;40.20;;;;;;5065519;28;19942;-66
2023/01/27 03:35:01;;;;;;;;;;;18.70;40.80;;;;;;5065911;28;19925;-60
2023/01/27 03:48:27;;;;;;;;;;;18.70;40.20;;;;;;5063468;28;19960;-63
2023/01/27 03:50:57;;;;;;;;;;;18.70;40.20;;;;;;5072304;28;19928;-68
2023/01/27 03:53:23;;;;;;;;;;;18.70;40.20;;;;;;5057067;28;20074;-64
2023/01/27 03:55:50;;;;;;;;;;;18.70;40.20;;;;;;5062446;28;19928;-67
2023/01/27 03:58:18;;;;;;;;;;;18.70;40.20;;;;;;5088210;28;19924;-62
2023/01/27 04:00:45;;;;;;;;;;;18.70;40.20;;;;;;5070868;28;19926;-61
2023/01/27 04:08:42;;;;;;;;;;;18.70;40.20;;;;;;5059652;28;19940;-64
2023/01/27 04:13:53;;;;;;;;;;;18.70;40.20;;;;;;5087194;28;19921;-61
2023/01/27 04:16:27;;;;;;;;;;;18.70;40.20;;;;;;5070729;28;19920;-63
2023/01/27 04:18:54;;;;;;;;;;;18.70;40.20;;;;;;5064776;28;19924;-62
2023/01/27 04:21:22;;;;;;;;;;;18.70;40.20;;;;;;5068910;28;19990;-71
2023/01/27 04:23:50;;;;;;;;;;;18.70;40.20;;;;;;5052825;28;19921;-62
2023/01/27 04:26:16;;;;;;;;;;;18.70;40.80;;;;;;5104766;28;19920;-68
2023/01/27 04:28:43;;;;;;;;;;;18.70;40.20;;;;;;5064743;28;19924;-62
2023/01/27 04:31:10;;;;;;;;;;;18.70;40.20;;;;;;5070731;28;19924;-63
2023/01/27 04:33:37;;;;;;;;;;;18.70;40.20;;;;;;5056830;28;20337;-62
2023/01/27 04:36:04;;;;;;;;;;;18.70;40.20;;;;;;5071012;28;19920;-62
2023/01/27 04:38:32;;;;;;;;;;;18.70;40.20;;;;;;5059007;28;19921;-62
2023/01/27 04:40:58;;;;;;;;;;;18.70;40.20;;;;;;5093882;28;20026;-62
2023/01/27 04:43:25;;;;;;;;;;;18.70;40.20;;;;;;5058175;28;19921;-67
2023/01/27 04:45:52;;;;;;;;;;;18.70;40.20;;;;;;5067877;28;19985;-61
2023/01/27 04:48:19;;;;;;;;;;;18.70;40.20;;;;;;5064413;28;20255;-61
2023/01/27 04:50:46;;;;;;;;;;;18.70;40.20;;;;;;5064902;28;19920;-62
2023/01/27 04:53:13;;;;;;;;;;;18.70;40.20;;;;;;5057429;28;19928;-69
2023/01/27 04:55:41;;;;;;;;;;;18.70;40.20;;;;;;5052154;28;19971;-66
2023/01/27 04:58:10;;;;;;;;;;;18.70;40.20;;;;;;5053370;28;19957;-71
2023/01/27 05:00:37;;;;;;;;;;;18.70;40.20;;;;;;5096301;28;19921;-66
2023/01/27 05:03:05;;;;;;;;;;;18.70;40.20;;;;;;5083166;28;20168;-61
2023/01/27 05:05:31;;;;;;;;;;;18.70;40.20;;;;;;5084147;28;19925;-65
2023/01/27 05:08:02;;;;;;;;;;;18.70;40.30;;;;;;5069177;28;20439;-68
2023/01/27 05:10:28;;;;;;;;;;;18.70;40.20;;;;;;5051948;28;19925;-64
2023/01/27 05:12:57;;;;;;;;;;;18.70;40.30;;;;;;5055593;28;20370;-62
2023/01/27 05:15:24;;;;;;;;;;;18.70;40.20;;;;;;5091931;28;19928;-64
2023/01/27 05:17:51;;;;;;;;;;;18.70;40.20;;;;;;5064960;28;19932;-61
2023/01/27 05:20:18;;;;;;;;;;;18.70;40.30;;;;;;5070590;28;19924;-61
2023/01/27 05:22:44;;;;;;;;;;;18.70;40.20;;;;;;5062156;28;19932;-69
2023/01/27 05:25:11;;;;;;;;;;;18.70;40.20;;;;;;5063198;28;19967;-75
2023/01/27 05:27:38;;;;;;;;;;;18.70;40.20;;;;;;5053900;28;20286;-61
2023/01/27 05:30:07;;;;;;;;;;;18.70;40.20;;;;;;5036445;28;19928;-60
2023/01/27 05:32:34;;;;;;;;;;;18.70;40.20;;;;;;5061434;28;20350;-63
2023/01/27 05:35:01;;;;;;;;;;;18.70;40.20;;;;;;5061818;28;19985;-69
2023/01/27 05:37:27;;;;;;;;;;;18.70;40.20;;;;;;5054544;28;19970;-61
2023/01/27 05:39:54;;;;;;;;;;;18.70;40.20;;;;;;5089631;28;19921;-61
2023/01/27 05:42:21;;;;;;;;;;;18.70;40.20;;;;;;5063239;28;19924;-72
2023/01/27 05:44:47;;;;;;;;;;;18.70;40.20;;;;;;5057292;28;19920;-67
2023/01/27 05:47:16;;;;;;;;;;;18.70;40.20;;;;;;5056028;28;19936;-62
2023/01/27 05:49:42;;;;;;;;;;;18.70;40.20;;;;;;5099179;28;20290;-61
2023/01/27 05:52:09;;;;;;;;;;;18.70;40.20;;;;;;5065943;28;19982;-69
2023/01/27 05:54:36;;;;;;;;;;;18.70;40.20;;;;;;5056859;28;19948;-64
2023/01/27 05:57:02;;;;;;;;;;;18.70;40.20;;;;;;5065623;28;19986;-60
2023/01/27 05:59:29;;;;;;;;;;;18.70;40.20;;;;;;5068313;28;20449;-69
2023/01/27 06:01:56;;;;;;;;;;;18.70;40.20;;;;;;5083479;28;19928;-60
2023/01/27 06:04:24;;;;;;;;;;;18.70;40.20;;;;;;5059125;28;20049;-60
2023/01/27 06:06:51;;;;;;;;;;;18.70;40.20;;;;;;5060652;28;20559;-64
2023/01/27 06:09:18;;;;;;;;;;;18.70;40.20;;;;;;5048593;28;19925;-60
2023/01/27 06:11:46;;;;;;;;;;;18.70;40.20;;;;;;5064766;28;20027;-61
2023/01/27 06:14:13;;;;;;;;;;;18.70;40.20;;;;;;5053219;28;20011;-64
2023/01/27 06:16:40;;;;;;;;;;;18.70;40.20;;;;;;5061561;28;19966;-74
2023/01/27 06:19:06;;;;;;;;;;;18.70;40.20;;;;;;5071777;28;19925;-62
2023/01/27 06:21:35;;;;;;;;;;;18.70;40.20;;;;;;5055706;28;19924;-65
2023/01/27 06:24:03;;;;;;;;;;;18.70;40.20;;;;;;5056137;28;19928;-63
2023/01/27 06:26:29;;;;;;;;;;;18.70;40.20;;;;;;5069919;28;19920;-61
2023/01/27 06:28:56;;;;;;;;;;;18.70;40.20;;;;;;5057001;28;19920;-65
2023/01/27 06:31:23;;;;;;;;;;;18.70;40.20;;;;;;5064342;28;19924;-74
2023/01/27 06:33:50;;;;;;;;;;;18.70;40.20;;;;;;5052742;28;19927;-68
2023/01/27 06:36:17;;;;;;;;;;;18.70;40.20;;;;;;5062909;28;19920;-61
2023/01/27 06:38:45;;;;;;;;;;;18.70;40.20;;;;;;5049980;28;19921;-70
2023/01/27 06:41:12;;;;;;;;;;;18.70;40.20;;;;;;5061193;28;19943;-68
2023/01/27 06:43:40;;;;;;;;;;;18.70;40.20;;;;;;5092690;28;19960;-61
2023/01/27 06:46:07;;;;;;;;;;;18.70;40.20;;;;;;5064787;28;19986;-71
2023/01/27 06:48:33;;;;;;;;;;;18.70;40.20;;;;;;5048316;28;19932;-61
2023/01/27 06:51:00;;;;;;;;;;;18.70;40.20;;;;;;5048084;28;19925;-62
2023/01/27 06:53:27;;;;;;;;;;;18.70;40.20;;;;;;5079421;28;19929;-70
2023/01/27 06:55:59;;;;;;;;;;;18.70;40.80;;;;;;5047827;28;19920;-61
2023/01/27 06:58:26;;;;;;;;;;;18.70;40.20;;;;;;5049247;28;20007;-61
2023/01/27 07:00:53;;;;;;;;;;;18.70;40.20;;;;;;5042956;28;19921;-64
2023/01/27 07:03:19;;;;;;;;;;;18.70;40.20;;;;;;5047399;28;19967;-67
2023/01/27 07:05:46;;;;;;;;;;;18.70;40.20;;;;;;5048596;28;20023;-60
2023/01/27 07:08:13;;;;;;;;;;;18.70;40.20;;;;;;5048593;28;19974;-60
2023/01/27 07:10:40;;;;;;;;;;;18.70;40.20;;;;;;5049179;28;19921;-69
2023/01/27 07:13:09;;;;;;;;;;;18.70;40.20;;;;;;5047451;28;19920;-63
2023/01/27 07:15:35;;;;;;;;;;;18.70;40.20;;;;;;5049007;28;20369;-63
2023/01/27 07:18:02;;;;;;;;;;;18.70;40.20;;;;;;5055522;28;19998;-60
2023/01/27 07:20:29;;;;;;;;;;;18.70;40.20;;;;;;5058469;28;19924;-62
2023/01/27 07:22:56;;;;;;;;;;;18.70;40.20;;;;;;5088886;28;19936;-61
2023/01/27 07:25:23;;;;;;;;;;;18.70;40.20;;;;;;5049470;28;19921;-72
2023/01/27 07:27:50;;;;;;;;;;;18.70;40.20;;;;;;5065570;28;19920;-62
2023/01/27 07:30:18;;;;;;;;;;;18.70;40.20;;;;;;5055716;28;19928;-66
2023/01/27 07:32:45;;;;;;;;;;;18.70;40.20;;;;;;5100464;28;19927;-64
2023/01/27 07:35:12;;;;;;;;;;;18.70;40.20;;;;;;5053072;28;19920;-66
2023/01/27 07:37:38;;;;;;;;;;;18.70;40.20;;;;;;5047541;28;20236;-61
2023/01/27 07:40:06;;;;;;;;;;;18.70;40.20;;;;;;5047297;28;20031;-60
2023/01/27 07:42:33;;;;;;;;;;;18.70;40.20;;;;;;5081308;28;19966;-60
2023/01/27 07:45:00;;;;;;;;;;;18.70;40.20;;;;;;5080140;28;19975;-60
2023/01/27 07:47:28;;;;;;;;;;;18.70;40.20;;;;;;5047073;28;19970;-66
2023/01/27 07:49:55;;;;;;;;;;;18.70;40.20;;;;;;5085502;28;19921;-63
2023/01/27 07:52:21;;;;;;;;;;;18.70;40.20;;;;;;5053466;28;20002;-60
2023/01/27 07:54:48;;;;;;;;;;;18.60;40.10;;;;;;5051726;28;19975;-69
2023/01/27 07:57:15;;;;;;;;;;;18.70;40.20;;;;;;5051849;28;19927;-61
2023/01/27 07:59:41;;;;;;;;;;;18.70;40.20;;;;;;5051831;28;19953;-62
2023/01/27 08:02:09;;;;;;;;;;;18.70;40.20;;;;;;5084828;28;19994;-63
2023/01/27 08:04:37;;;;;;;;;;;18.70;40.20;;;;;;5077217;28;19925;-63
2023/01/27 08:07:05;;;;;;;;;;;18.70;40.20;;;;;;5084200;28;19951;-61
2023/01/27 08:09:32;;;;;;;;;;;18.70;40.20;;;;;;5049750;28;19920;-66
2023/01/27 08:11:59;;;;;;;;;;;18.70;40.20;;;;;;5050328;28;20396;-63
2023/01/27 08:14:26;;;;;;;;;;;18.70;40.20;;;;;;5050657;28;19986;-69
2023/01/27 08:16:52;;;;;;;;;;;18.70;40.20;;;;;;5049977;28;19986;-63
2023/01/27 08:19:19;;;;;;;;;;;18.70;40.20;;;;;;5051213;28;19920;-64
2023/01/27 08:21:48;;;;;;;;;;;18.70;40.20;;;;;;5051489;28;19975;-61
2023/01/27 08:24:14;;;;;;;;;;;18.70;40.20;;;;;;5079241;28;20036;-65
2023/01/27 08:26:41;;;;;;;;;;;18.70;40.20;;;;;;5064778;28;19929;-60
2023/01/27 08:29:08;;;;;;;;;;;18.70;40.20;;;;;;5068247;28;19970;-64
2023/01/27 08:31:35;;;;;;;;;;;18.70;40.20;;;;;;5051988;28;19924;-64
2023/01/27 08:34:01;;;;;;;;;;;18.70;40.20;;;;;;5050394;28;19982;-68
2023/01/27 08:36:28;;;;;;;;;;;18.70;40.20;;;;;;5049901;28;20345;-62
2023/01/27 08:38:56;;;;;;;;;;;18.70;40.20;;;;;;5050886;28;19924;-61
2023/01/27 08:41:23;;;;;;;;;;;18.70;40.20;;;;;;5082759;28;19966;-66
2023/01/27 08:43:50;;;;;;;;;;;18.70;40.80;;;;;;5083498;28;19925;-60
2023/01/27 08:46:17;;;;;;;;;;;18.70;40.20;;;;;;5050506;28;20448;-66
2023/01/27 08:48:44;;;;;;;;;;;18.70;40.20;;;;;;5083982;28;19920;-68
2023/01/27 08:51:11;;;;;;;;;;;18.70;40.20;;;;;;5050603;28;19966;-60
2023/01/27 08:53:38;;;;;;;;;;;18.70;40.20;;;;;;5050452;28;19924;-65
2023/01/27 08:56:07;;;;;;;;;;;18.70;40.20;;;;;;5083925;28;19920;-65
2023/01/27 08:58:34;;;;;;;;;;;18.70;40.20;;;;;;5049810;28;19925;-61
2023/01/27 09:01:02;;;;;;;;;;;18.70;40.20;;;;;;5051499;28;19921;-62
2023/01/27 09:03:28;;;;;;;;;;;18.60;40.10;;;;;;5051226;28;19974;-63
2023/01/27 09:05:55;;;;;;;;;;;18.70;40.20;;;;;;5052032;28;20358;-59
2023/01/27 09:08:22;;;;;;;;;;;18.70;40.20;;;;;;5050358;28;20047;-61
2023/01/27 09:10:48;;;;;;;;;;;18.70;40.20;;;;;;5033557;28;19925;-62
2023/01/27 09:13:17;;;;;;;;;;;18.70;40.20;;;;;;5042712;28;19921;-61
2023/01/27 09:15:45;;;;;;;;;;;18.70;40.20;;;;;;5049487;28;19931;-71
2023/01/27 09:18:12;;;;;;;;;;;18.70;40.20;;;;;;5049289;28;19920;-60
2023/01/27 09:20:38;;;;;;;;;;;18.70;40.20;;;;;;5048878;28;19964;-68
2023/01/27 09:23:05;;;;;;;;;;;18.70;40.20;;;;;;5050393;28;20278;-64
2023/01/27 09:25:32;;;;;;;;;;;18.70;40.20;;;;;;5045801;28;19929;-62
2023/01/27 09:27:59;;;;;;;;;;;18.70;40.20;;;;;;5049579;28;19921;-64
2023/01/27 09:30:27;;;;;;;;;;;18.70;40.20;;;;;;5081916;28;19933;-63
2023/01/27 09:32:55;;;;;;;;;;;18.70;40.20;;;;;;5049603;28;19921;-62
2023/01/27 09:35:22;;;;;;;;;;;18.70;40.20;;;;;;5048102;28;19932;-61
2023/01/27 09:37:50;;;;;;;;;;;18.70;40.20;;;;;;5049506;28;19927;-69
2023/01/27 09:40:23;;;;;;;;;;;18.70;40.20;;;;;;5046200;28;19972;-62
2023/01/27 09:43:14;;;;;;;;;;;18.70;40.20;;;;;;5080358;28;19921;-64
2023/01/27 09:45:48;;;;;;;;;;;18.60;40.10;;;;;;4977574;28;19952;-61
2023/01/27 09:48:19;;;;;;;;;;;18.70;40.20;;;;;;5047232;28;19924;-61
2023/01/27 09:50:46;;;;;;;;;;;18.60;40.10;;;;;;5046179;28;19933;-70
2023/01/27 09:53:17;;;;;;;;;;;18.70;40.20;;;;;;5049099;28;19924;-61
2023/01/27 09:55:45;;;;;;;;;;;18.70;40.20;;;;;;5046662;28;19925;-61
2023/01/27 09:58:15;;;;;;;;;;;18.70;40.20;;;;;;5080098;28;19921;-64
2023/01/27 10:00:44;;;;;;;;;;;18.70;40.20;;;;;;5048704;28;19927;-69
2023/01/27 10:03:19;;;;;;;;;;;18.70;40.20;;;;;;5045617;28;19921;-61
2023/01/27 10:05:56;;;;;;;;;;;18.60;40.20;;;;;;5041747;28;19933;-61
2023/01/27 10:08:27;;;;;;;;;;;18.70;40.20;;;;;;5046010;28;19921;-65
2023/01/27 10:10:58;;;;;;;;;;;18.70;40.20;;;;;;5077975;28;20358;-71
2023/01/27 10:13:30;;;;;;;;;;;18.70;40.20;;;;;;5049959;28;19925;-64
2023/01/27 10:16:02;;;;;;;;;;;18.70;40.30;;;;;;5047732;28;19991;-60
2023/01/27 10:18:33;;;;;;;;;;;18.70;40.20;;;;;;5048265;28;19931;-61
2023/01/27 10:21:01;;;;;;;;;;;18.70;40.20;;;;;;5047663;28;19928;-62
2023/01/27 10:23:31;;;;;;;;;;;18.70;40.20;;;;;;5048492;28;19921;-70
2023/01/27 10:25:59;;;;;;;;;;;18.70;40.20;;;;;;5081183;28;19920;-62
2023/01/27 10:28:27;;;;;;;;;;;18.70;40.20;;;;;;5049457;28;20452;-66
2023/01/27 10:30:55;;;;;;;;;;;18.70;40.80;;;;;;5081205;28;19979;-67
2023/01/27 10:33:22;;;;;;;;;;;18.70;40.20;;;;;;5080727;28;19925;-68
2023/01/27 10:35:52;;;;;;;;;;;18.70;40.20;;;;;;5047626;28;19929;-61
2023/01/27 10:38:23;;;;;;;;;;;18.70;40.20;;;;;;5081515;28;20026;-64
2023/01/27 10:40:50;;;;;;;;;;;18.70;40.20;;;;;;5080811;28;19933;-61
2023/01/27 10:43:18;;;;;;;;;;;18.70;40.30;;;;;;5047185;28;19975;-60
2023/01/27 10:45:47;;;;;;;;;;;18.70;40.20;;;;;;5047130;28;19974;-68
2023/01/27 10:48:21;;;;;;;;;;;18.70;40.20;;;;;;5047501;28;19940;-68
2023/01/27 10:50:49;;;;;;;;;;;18.70;40.20;;;;;;5043946;28;19921;-64
2023/01/27 10:53:18;;;;;;;;;;;18.70;40.20;;;;;;5047781;28;19931;-61
2023/01/27 10:55:46;;;;;;;;;;;18.70;40.20;;;;;;5048416;28;19987;-66
2023/01/27 10:58:15;;;;;;;;;;;18.70;40.20;;;;;;5081813;28;20011;-62
2023/01/27 11:00:42;;;;;;;;;;;18.70;40.20;;;;;;5036126;28;19921;-68
2023/01/27 11:03:10;;;;;;;;;;;18.70;40.30;;;;;;5042187;28;20441;-71
2023/01/27 11:05:37;;;;;;;;;;;18.70;40.30;;;;;;5039407;28;19925;-64
2023/01/27 11:08:06;;;;;;;;;;;18.70;40.30;;;;;;5046067;28;19925;-64
2023/01/27 11:10:35;;;;;;;;;;;18.70;40.30;;;;;;5046772;28;19929;-64
2023/01/27 11:13:02;;;;;;;;;;;18.70;40.30;;;;;;5060494;28;19921;-63
2023/01/27 11:15:29;;;;;;;;;;;18.70;40.30;;;;;;5070891;28;20181;-67
2023/01/27 11:17:57;;;;;;;;;;;18.70;40.30;;;;;;5044842;28;19921;-68
2023/01/27 11:20:26;;;;;;;;;;;18.70;40.30;;;;;;5050585;28;19975;-65
2023/01/27 11:22:54;;;;;;;;;;;18.70;40.30;;;;;;5046912;28;19944;-61
2023/01/27 11:25:23;;;;;;;;;;;18.70;40.30;;;;;;5044480;28;19955;-61
2023/01/27 11:27:56;;;;;;;;;;;18.70;40.30;;;;;;5046872;28;19987;-62
2023/01/27 11:30:25;;;;;;;;;;;18.70;40.30;;;;;;5051015;28;19927;-62
2023/01/27 11:32:53;;;;;;;;;;;18.70;40.30;;;;;;5049108;28;19925;-64
2023/01/27 11:35:19;;;;;;;;;;;18.70;40.30;;;;;;5047986;28;19924;-61
2023/01/27 11:37:47;;;;;;;;;;;18.70;40.30;;;;;;5049765;28;19974;-70
2023/01/27 11:40:15;;;;;;;;;;;18.70;40.30;;;;;;5037728;28;19937;-61
2023/01/27 11:42:42;;;;;;;;;;;18.70;40.30;;;;;;5049279;28;19928;-67
2023/01/27 11:45:13;;;;;;;;;;;18.70;40.30;;;;;;5082994;28;19928;-68
2023/01/27 11:47:40;;;;;;;;;;;18.70;40.30;;;;;;5050226;28;19928;-62
2023/01/27 11:50:07;;;;;;;;;;;18.70;40.30;;;;;;5049444;28;19925;-68
2023/01/27 11:52:34;;;;;;;;;;;18.70;40.30;;;;;;5049726;28;19933;-62
2023/01/27 11:55:11;;;;;;;;;;;18.70;40.30;;;;;;5043176;28;19925;-63
2023/01/27 11:57:37;;;;;;;;;;;18.70;40.30;;;;;;5037154;28;20359;-61
2023/01/27 12:00:06;;;;;;;;;;;18.70;40.30;;;;;;5073887;28;20366;-62
2023/01/27 12:02:35;;;;;;;;;;;18.70;40.30;;;;;;5049176;28;19921;-62
2023/01/27 12:05:03;;;;;;;;;;;18.70;40.30;;;;;;5044291;28;20300;-65
2023/01/27 12:07:35;;;;;;;;;;;18.70;40.30;;;;;;5037132;28;19921;-65
2023/01/27 12:10:02;;;;;;;;;;;18.70;40.30;;;;;;5038833;28;19991;-66
2023/01/27 12:12:29;;;;;;;;;;;18.70;40.40;;;;;;5049377;28;19927;-65
2023/01/27 12:14:56;;;;;;;;;;;18.70;40.40;;;;;;5082066;28;19921;-65
2023/01/27 12:17:25;;;;;;;;;;;18.70;40.30;;;;;;5077473;28;20002;-72
2023/01/27 12:19:53;;;;;;;;;;;18.70;40.30;;;;;;5041600;28;20016;-63
2023/01/27 12:22:21;;;;;;;;;;;18.70;40.40;;;;;;5043985;28;19983;-61
2023/01/27 12:24:49;;;;;;;;;;;18.70;40.40;;;;;;5083286;28;19924;-64
2023/01/27 12:27:19;;;;;;;;;;;18.70;40.30;;;;;;5082900;28;20010;-63
2023/01/27 12:29:48;;;;;;;;;;;18.70;40.40;;;;;;5051012;28;19921;-67
2023/01/27 12:32:16;;;;;;;;;;;18.80;40.40;;;;;;5045748;28;19932;-67
2023/01/27 12:34:44;;;;;;;;;;;18.70;40.40;;;;;;5080142;28;19924;-64
2023/01/27 12:37:19;;;;;;;;;;;18.70;40.40;;;;;;5044105;28;20042;-62
2023/01/27 12:39:49;;;;;;;;;;;18.80;40.40;;;;;;5048495;28;19928;-62
2023/01/27 12:42:34;;;;;;;;;;;18.70;40.40;;;;;;5050188;28;19944;-72
2023/01/27 12:45:07;;;;;;;;;;;18.70;40.40;;;;;;5047470;28;19925;-62
2023/01/27 12:47:34;;;;;;;;;;;18.70;40.40;;;;;;5048498;28;19925;-65
2023/01/27 12:50:17;;;;;;;;;;;18.80;40.40;;;;;;5050523;28;19929;-61
2023/01/27 12:52:45;;;;;;;;;;;18.70;40.40;;;;;;5082208;28;19921;-63
2023/01/27 12:55:24;;;;;;;;;;;18.80;40.40;;;;;;5081489;28;19928;-71
2023/01/27 12:57:51;;;;;;;;;;;18.80;40.50;;;;;;5082544;28;19925;-61
2023/01/27 13:00:18;;;;;;;;;;;18.80;40.40;;;;;;5050075;28;19925;-63
2023/01/27 13:02:45;;;;;;;;;;;18.80;40.40;;;;;;5049651;28;20156;-62
2023/01/27 13:05:14;;;;;;;;;;;18.80;40.40;;;;;;5048613;28;19967;-71
2023/01/27 13:07:43;;;;;;;;;;;18.80;41.00;;;;;;5048032;28;19928;-62
2023/01/27 13:10:17;;;;;;;;;;;18.80;40.50;;;;;;5048303;28;20367;-65
2023/01/27 13:12:47;;;;;;;;;;;18.80;40.50;;;;;;5062339;28;19974;-63
2023/01/27 13:15:15;;;;;;;;;;;18.70;40.40;;;;;;5092503;28;19948;-70
2023/01/27 13:17:43;;;;;;;;;;;18.80;40.50;;;;;;5067179;28;20011;-64
2023/01/27 13:20:15;;;;;;;;;;;18.80;40.50;;;;;;5070786;28;19931;-64
2023/01/27 13:22:43;;;;;;;;;;;18.80;40.50;;;;;;5063608;28;19924;-61
2023/01/27 13:25:14;;;;;;;;;;;18.70;40.50;;;;;;5060444;28;20448;-63
2023/01/27 13:27:42;;;;;;;;;;;18.80;40.50;;;;;;5064099;28;19928;-71
2023/01/27 13:30:12;;;;;;;;;;;18.80;40.50;;;;;;5058589;28;19960;-67
2023/01/27 13:32:39;;;;;;;;;;;18.80;40.50;;;;;;5081802;28;19963;-63
2023/01/27 13:35:08;;;;;;;;;;;18.80;40.60;;;;;;5081911;28;20389;-65
2023/01/27 13:37:36;;;;;;;;;;;18.70;40.50;;;;;;5049556;28;19925;-61
2023/01/27 13:40:03;;;;;;;;;;;18.80;40.50;;;;;;5048545;28;19990;-66
2023/01/27 13:42:31;;;;;;;;;;;18.80;40.60;;;;;;5045398;28;20164;-65
2023/01/27 13:45:01;;;;;;;;;;;18.80;40.60;;;;;;5051069;28;20309;-64
2023/01/27 13:47:29;;;;;;;;;;;18.70;40.50;;;;;;5031614;28;20327;-66
2023/01/27 13:49:56;;;;;;;;;;;18.80;40.60;;;;;;5048226;28;19964;-68
2023/01/27 13:52:23;;;;;;;;;;;18.80;40.60;;;;;;5047902;28;20010;-64
2023/01/27 13:54:50;;;;;;;;;;;18.80;40.60;;;;;;5081194;28;19963;-64
2023/01/27 13:57:32;;;;;;;;;;;18.80;40.60;;;;;;5043872;28;19974;-63
2023/01/27 14:00:04;;;;;;;;;;;18.80;40.60;;;;;;5046205;28;19964;-61
2023/01/27 14:02:46;;;;;;;;;;;18.80;40.60;;;;;;5047489;28;19927;-62
2023/01/27 14:05:20;;;;;;;;;;;18.70;40.60;;;;;;5047932;28;20015;-62
2023/01/27 14:07:50;;;;;;;;;;;18.80;40.60;;;;;;5047582;28;19921;-62
2023/01/27 14:10:17;;;;;;;;;;;18.80;40.60;;;;;;5047545;28;20409;-67
2023/01/27 14:12:48;;;;;;;;;;;18.80;40.60;;;;;;5050285;28;19920;-61
2023/01/27 14:15:20;;;;;;;;;;;18.80;40.70;;;;;;5059363;28;19967;-64
2023/01/27 14:17:52;;;;;;;;;;;18.80;40.70;;;;;;5075608;28;20476;-64
2023/01/27 14:20:25;;;;;;;;;;;18.80;40.70;;;;;;5097813;28;19920;-65
2023/01/27 14:22:54;;;;;;;;;;;18.80;40.60;;;;;;5056319;28;19933;-62
2023/01/27 14:25:23;;;;;;;;;;;18.80;40.70;;;;;;5049552;28;20340;-61
2023/01/27 14:27:50;;;;;;;;;;;18.80;40.70;;;;;;5051472;28;19947;-64
2023/01/27 14:30:19;;;;;;;;;;;18.80;40.70;;;;;;5097562;28;19920;-64
2023/01/27 14:32:46;;;;;;;;;;;18.80;40.70;;;;;;5047748;28;19929;-62
2023/01/27 14:35:22;;;;;;;;;;;18.80;40.70;;;;;;5047091;28;19921;-65
2023/01/27 14:37:52;;;;;;;;;;;18.80;40.70;;;;;;5048515;28;19947;-63
2023/01/27 14:40:20;;;;;;;;;;;18.80;40.70;;;;;;5044024;28;20031;-64
2023/01/27 14:42:50;;;;;;;;;;;18.80;40.70;;;;;;5055751;28;19932;-64
2023/01/27 14:45:19;;;;;;;;;;;18.80;40.70;;;;;;5045981;28;20076;-61
2023/01/27 14:47:48;;;;;;;;;;;18.80;40.70;;;;;;5058835;28;19920;-66
2023/01/27 14:50:18;;;;;;;;;;;18.80;40.70;;;;;;5101330;28;19932;-61
2023/01/27 14:52:45;;;;;;;;;;;18.80;40.80;;;;;;5059681;28;20382;-61
2023/01/27 14:55:19;;;;;;;;;;;18.80;40.70;;;;;;5048373;28;19924;-63